N2423U KAWO-KAWO
Flight info
| Callsign | N2423U |
|---|---|
| Flight time | 0h 3m |
| Altitude | 1500 |
| Route | PATTERNS SOUTH/N0104F120 AND/K0194F120 GO/N0105F120 |
| Aircraft | C172/L-SFG/C |
Departure
| Time | 2026-05-06 22:58 |
|---|---|
| Airport | Arlington Municipal Airport (KAWO) |
Arrival
| Time | 2026-05-06 23:01 |
|---|---|
| Airport | Arlington Municipal Airport (KAWO) |
| Time | Latitude | Longitude | Altitude | Speed | Heading |
|---|---|---|---|---|---|
| 2026-05-06 22:46 | 48.16141 | -122.15246 | 137 ft | 0 kts | 268° |
| 2026-05-06 22:52 | 48.16141 | -122.15248 | 137 ft | 1 kts | 259° |
| 2026-05-06 22:52 | 48.16141 | -122.15277 | 137 ft | 3 kts | 270° |
| 2026-05-06 22:53 | 48.16142 | -122.15323 | 137 ft | 4 kts | 269° |
| 2026-05-06 22:53 | 48.16140 | -122.15379 | 137 ft | 5 kts | 262° |
| 2026-05-06 22:53 | 48.16150 | -122.15426 | 136 ft | 4 kts | 327° |
| 2026-05-06 22:53 | 48.16193 | -122.15430 | 137 ft | 7 kts | 357° |
| 2026-05-06 22:54 | 48.16257 | -122.15432 | 137 ft | 10 kts | 359° |
| 2026-05-06 22:54 | 48.16341 | -122.15434 | 138 ft | 13 kts | 0° |
| 2026-05-06 22:54 | 48.16420 | -122.15435 | 138 ft | 10 kts | 358° |
| 2026-05-06 22:54 | 48.16503 | -122.15436 | 138 ft | 13 kts | 360° |
| 2026-05-06 22:55 | 48.16581 | -122.15439 | 138 ft | 9 kts | 358° |
| 2026-05-06 22:55 | 48.16646 | -122.15441 | 138 ft | 9 kts | 359° |
| 2026-05-06 22:55 | 48.16714 | -122.15443 | 138 ft | 9 kts | 358° |
| 2026-05-06 22:55 | 48.16780 | -122.15444 | 139 ft | 8 kts | 358° |
| 2026-05-06 22:56 | 48.16838 | -122.15445 | 140 ft | 7 kts | 359° |
| 2026-05-06 22:56 | 48.16889 | -122.15447 | 140 ft | 7 kts | 358° |
| 2026-05-06 22:56 | 48.16957 | -122.15449 | 139 ft | 8 kts | 353° |
| 2026-05-06 22:56 | 48.16966 | -122.15509 | 139 ft | 7 kts | 241° |
| 2026-05-06 22:57 | 48.16938 | -122.15568 | 140 ft | 6 kts | 231° |
| 2026-05-06 22:57 | 48.16905 | -122.15634 | 138 ft | 8 kts | 224° |
| 2026-05-06 22:57 | 48.16844 | -122.15652 | 138 ft | 20 kts | 176° |
| 2026-05-06 22:57 | 48.16511 | -122.15636 | 206 ft | 63 kts | 185° |
| 2026-05-06 22:58 | 48.16041 | -122.15631 | 389 ft | 73 kts | 181° |
| 2026-05-06 22:58 | 48.15498 | -122.15615 | 535 ft | 80 kts | 185° |
| 2026-05-06 22:58 | 48.14970 | -122.15696 | 771 ft | 71 kts | 205° |
| 2026-05-06 22:58 | 48.14685 | -122.16213 | 1013 ft | 67 kts | 266° |
| 2026-05-06 22:59 | 48.15002 | -122.16730 | 1191 ft | 77 kts | 344° |
| 2026-05-06 22:59 | 48.15593 | -122.16863 | 1259 ft | 92 kts | 353° |
| 2026-05-06 22:59 | 48.16251 | -122.16988 | 1356 ft | 97 kts | 354° |
| 2026-05-06 22:59 | 48.16921 | -122.17106 | 1431 ft | 97 kts | 355° |
| 2026-05-06 23:00 | 48.17607 | -122.17233 | 1388 ft | 99 kts | 356° |
| 2026-05-06 23:00 | 48.18301 | -122.17129 | 1264 ft | 101 kts | 31° |
| 2026-05-06 23:00 | 48.18619 | -122.16248 | 1015 ft | 106 kts | 103° |
| 2026-05-06 23:00 | 48.18172 | -122.15576 | 669 ft | 96 kts | 181° |
| 2026-05-06 23:01 | 48.17571 | -122.15665 | 393 ft | 75 kts | 186° |
| 2026-05-06 23:01 | 48.17094 | -122.15657 | 187 ft | 61 kts | 186° |
| 2026-05-06 23:01 | 48.16737 | -122.15657 | 138 ft | 40 kts | 181° |
| 2026-05-06 23:01 | 48.16406 | -122.15634 | 203 ft | 55 kts | 184° |
| 2026-05-06 23:02 | 48.16005 | -122.15636 | 328 ft | 59 kts | 184° |
| 2026-05-06 23:02 | 48.15594 | -122.15612 | 471 ft | 58 kts | 180° |
| 2026-05-06 23:02 | 48.15159 | -122.15605 | 603 ft | 66 kts | 188° |
| 2026-05-06 23:02 | 48.14729 | -122.15829 | 787 ft | 66 kts | 217° |
| 2026-05-06 23:03 | 48.14621 | -122.16485 | 920 ft | 81 kts | 292° |
| 2026-05-06 23:03 | 48.15154 | -122.16863 | 999 ft | 95 kts | 356° |
| 2026-05-06 23:03 | 48.15845 | -122.16911 | 1060 ft | 101 kts | 360° |
| 2026-05-06 23:03 | 48.16541 | -122.16895 | 1153 ft | 99 kts | 1° |
| 2026-05-06 23:04 | 48.17235 | -122.16885 | 1213 ft | 97 kts | 1° |
| 2026-05-06 23:04 | 48.17906 | -122.16902 | 1220 ft | 95 kts | 358° |
| 2026-05-06 23:04 | 48.18579 | -122.16917 | 1143 ft | 97 kts | 0° |
| 2026-05-06 23:04 | 48.19198 | -122.16798 | 1211 ft | 73 kts | 35° |
| 2026-05-06 23:05 | 48.19260 | -122.16167 | 1089 ft | 69 kts | 137° |
| 2026-05-06 23:05 | 48.18845 | -122.15743 | 831 ft | 76 kts | 166° |
| 2026-05-06 23:05 | 48.18332 | -122.15658 | 581 ft | 74 kts | 190° |
| 2026-05-06 23:05 | 48.17834 | -122.15675 | 424 ft | 69 kts | 186° |
| 2026-05-06 23:06 | 48.17370 | -122.15663 | 304 ft | 64 kts | 184° |
| 2026-05-06 23:06 | 48.16930 | -122.15652 | 184 ft | 61 kts | 186° |
| 2026-05-06 23:06 | 48.16534 | -122.15644 | 144 ft | 52 kts | 185° |
| 2026-05-06 23:06 | 48.16196 | -122.15638 | 136 ft | 45 kts | 182° |